Time;durP1;ratioP1;P1;durP2;ratioP2;P2;SDS_P1;SDS_P2;PMS_P1;PMS_P2;Temp;Humidity;BMP_temperature;BMP_pressure;BME280_temperature;BME280_humidity;BME280_pressure;Samples;Min_cycle;Max_cycle;Signal;HPM_P1;HPM_P2
2021/03/10 00:01:14;;;;;;;146.95;135.23;;;;;;;;;;5060109;28;20133;-79
2021/03/10 00:03:39;;;;;;;148.32;135.80;;;;;;;;;;5067173;28;20052;-79
2021/03/10 00:06:05;;;;;;;148.43;136.23;;;;;;;;;;5064703;28;20110;-79
2021/03/10 00:08:31;;;;;;;153.52;141.02;;;;;;;;;;5066517;28;20044;-79
2021/03/10 00:10:56;;;;;;;157.70;144.52;;;;;;;;;;5060217;28;20025;-79
2021/03/10 00:13:22;;;;;;;159.13;146.15;;;;;;;;;;5066841;28;20070;-79
2021/03/10 00:15:47;;;;;;;163.55;149.80;;;;;;;;;;5065805;28;20024;-79
2021/03/10 00:18:13;;;;;;;166.30;152.07;;;;;;;;;;5063822;28;20473;-79
2021/03/10 00:20:38;;;;;;;167.98;153.52;;;;;;;;;;5060860;28;20090;-80
2021/03/10 00:23:03;;;;;;;170.93;156.10;;;;;;;;;;5052849;28;20107;-79
2021/03/10 00:25:29;;;;;;;172.88;158.48;;;;;;;;;;5067127;28;20127;-79
2021/03/10 00:27:54;;;;;;;177.95;162.88;;;;;;;;;;5065371;28;20170;-79
2021/03/10 00:30:20;;;;;;;176.52;161.70;;;;;;;;;;5066581;28;20043;-79
2021/03/10 00:32:45;;;;;;;177.20;162.07;;;;;;;;;;5066157;28;20434;-79
2021/03/10 00:35:11;;;;;;;175.25;160.57;;;;;;;;;;5060423;28;20029;-78
2021/03/10 00:37:36;;;;;;;181.82;166.05;;;;;;;;;;5061043;28;20625;-79
2021/03/10 00:40:02;;;;;;;182.20;166.35;;;;;;;;;;5063678;28;20029;-79
2021/03/10 00:42:28;;;;;;;179.90;164.15;;;;;;;;;;5067169;28;20355;-79
2021/03/10 00:44:53;;;;;;;183.05;167.25;;;;;;;;;;5066024;28;20103;-80
2021/03/10 00:47:18;;;;;;;186.90;170.55;;;;;;;;;;5065773;28;20103;-79
2021/03/10 00:49:44;;;;;;;186.40;170.00;;;;;;;;;;5054250;28;20083;-79
2021/03/10 00:52:10;;;;;;;183.07;166.90;;;;;;;;;;5050860;28;20388;-79
2021/03/10 00:54:35;;;;;;;187.32;170.75;;;;;;;;;;5058236;28;20021;-80
2021/03/10 00:57:01;;;;;;;188.25;172.25;;;;;;;;;;5059168;28;20031;-79
2021/03/10 00:59:26;;;;;;;190.48;174.57;;;;;;;;;;5054558;28;20065;-79
2021/03/10 01:01:51;;;;;;;188.15;171.85;;;;;;;;;;5054973;28;20052;-80
2021/03/10 01:04:17;;;;;;;642.47;380.23;;;;;;;;;;5058033;28;20044;-79
2021/03/10 01:06:42;;;;;;;1999.90;999.90;;;;;;;;;;5056371;28;20040;-79
2021/03/10 01:09:08;;;;;;;1999.90;999.90;;;;;;;;;;5055135;28;20059;-79
2021/03/10 01:11:33;;;;;;;1999.90;999.90;;;;;;;;;;5057110;28;20032;-80
2021/03/10 01:13:59;;;;;;;1999.90;999.90;;;;;;;;;;5059013;28;20111;-80
2021/03/10 01:16:25;;;;;;;1999.90;999.90;;;;;;;;;;5050745;28;20384;-80
2021/03/10 01:18:50;;;;;;;1999.90;999.90;;;;;;;;;;5056604;28;20067;-79
2021/03/10 01:21:16;;;;;;;1999.90;999.90;;;;;;;;;;5062222;28;20031;-79
2021/03/10 01:23:41;;;;;;;1999.90;999.90;;;;;;;;;;5052667;28;20728;-79
2021/03/10 01:26:07;;;;;;;1999.90;999.90;;;;;;;;;;5063549;28;20017;-79
2021/03/10 01:28:32;;;;;;;1999.90;999.90;;;;;;;;;;5064773;28;20064;-79
2021/03/10 01:30:57;;;;;;;1999.90;999.90;;;;;;;;;;5061054;28;20009;-79
2021/03/10 01:33:23;;;;;;;1999.90;999.90;;;;;;;;;;5060581;28;20062;-79
2021/03/10 01:35:48;;;;;;;1999.90;999.90;;;;;;;;;;5064899;28;20020;-79
2021/03/10 01:38:14;;;;;;;1999.90;999.90;;;;;;;;;;5059434;28;20028;-79
2021/03/10 01:40:39;;;;;;;1999.90;999.90;;;;;;;;;;5055479;28;20024;-79
2021/03/10 01:43:06;;;;;;;1999.90;999.90;;;;;;;;;;5058320;28;20096;-79
2021/03/10 01:45:32;;;;;;;1999.90;999.90;;;;;;;;;;5055308;28;20056;-79
2021/03/10 01:47:58;;;;;;;1999.90;999.90;;;;;;;;;;5062052;28;20778;-79
2021/03/10 01:50:23;;;;;;;1999.90;999.90;;;;;;;;;;5055871;28;20082;-80
2021/03/10 01:52:49;;;;;;;1999.90;999.90;;;;;;;;;;5062616;28;20123;-79
2021/03/10 01:55:14;;;;;;;1999.90;999.90;;;;;;;;;;5063711;28;20111;-80
2021/03/10 01:57:40;;;;;;;1999.90;999.90;;;;;;;;;;5060353;28;20036;-79
2021/03/10 02:00:06;;;;;;;1999.90;999.90;;;;;;;;;;5064304;28;20090;-80
2021/03/10 02:02:38;;;;;;;1999.90;999.90;;;;;;;;;;5057710;28;20500;-80
2021/03/10 02:05:03;;;;;;;1999.90;999.90;;;;;;;;;;5063057;28;20131;-79
2021/03/10 02:07:45;;;;;;;1999.90;999.90;;;;;;;;;;5065308;28;20115;-78
2021/03/10 02:10:28;;;;;;;1999.90;999.90;;;;;;;;;;5058197;28;20028;-79
2021/03/10 02:13:03;;;;;;;1999.90;999.90;;;;;;;;;;5056561;28;20119;-79
2021/03/10 02:15:44;;;;;;;1999.90;999.90;;;;;;;;;;5059671;28;20032;-79
2021/03/10 02:18:11;;;;;;;1999.90;999.90;;;;;;;;;;5060160;28;20142;-78
2021/03/10 02:20:42;;;;;;;1999.90;999.90;;;;;;;;;;5068804;28;20087;-79
2021/03/10 02:23:08;;;;;;;1999.90;999.90;;;;;;;;;;5076231;28;20052;-80
2021/03/10 02:25:39;;;;;;;1999.90;999.90;;;;;;;;;;5078652;28;20005;-80
2021/03/10 02:28:06;;;;;;;1999.90;999.90;;;;;;;;;;5061674;28;20048;-79
2021/03/10 02:30:42;;;;;;;1999.90;999.90;;;;;;;;;;5057754;28;20057;-79
2021/03/10 02:33:11;;;;;;;1999.90;999.90;;;;;;;;;;5060505;28;20113;-79
2021/03/10 02:35:41;;;;;;;1999.90;999.90;;;;;;;;;;5063054;28;20096;-81
2021/03/10 02:38:08;;;;;;;1999.90;999.90;;;;;;;;;;5062105;28;20074;-80
2021/03/10 02:40:35;;;;;;;1999.90;999.90;;;;;;;;;;5062333;28;20420;-80
2021/03/10 02:43:01;;;;;;;1999.90;999.90;;;;;;;;;;5066679;28;20128;-80
2021/03/10 02:45:27;;;;;;;1999.90;999.90;;;;;;;;;;5060621;28;20100;-80
2021/03/10 02:47:55;;;;;;;1999.90;999.90;;;;;;;;;;5060652;28;20051;-80
2021/03/10 02:50:20;;;;;;;1999.90;999.90;;;;;;;;;;5060819;28;20109;-80
2021/03/10 02:52:47;;;;;;;1999.90;999.90;;;;;;;;;;5065156;28;20071;-79
2021/03/10 02:55:13;;;;;;;1999.90;999.90;;;;;;;;;;5062351;28;20028;-79
2021/03/10 02:57:39;;;;;;;1999.90;999.90;;;;;;;;;;5067869;28;20041;-79
2021/03/10 03:00:13;;;;;;;1999.90;999.90;;;;;;;;;;5066893;28;20030;-79
2021/03/10 03:02:39;;;;;;;1999.90;999.90;;;;;;;;;;5062736;28;20507;-79
2021/03/10 03:05:05;;;;;;;1999.90;999.90;;;;;;;;;;5056033;28;20045;-79
2021/03/10 03:07:31;;;;;;;1999.90;999.90;;;;;;;;;;5059616;28;20041;-80
2021/03/10 03:09:57;;;;;;;1999.90;999.90;;;;;;;;;;5060759;28;20553;-80
2021/03/10 03:12:23;;;;;;;1999.90;999.90;;;;;;;;;;5053264;28;20037;-80
2021/03/10 03:14:48;;;;;;;1999.90;999.90;;;;;;;;;;5065154;28;20038;-79
2021/03/10 03:17:14;;;;;;;1999.90;999.90;;;;;;;;;;5066589;28;20025;-79
2021/03/10 03:19:40;;;;;;;1999.90;999.90;;;;;;;;;;5067691;28;20048;-79
2021/03/10 03:22:06;;;;;;;1999.90;999.90;;;;;;;;;;5066321;28;20043;-79
2021/03/10 03:24:31;;;;;;;1999.90;999.90;;;;;;;;;;5062521;28;20021;-79
2021/03/10 03:26:57;;;;;;;1999.90;999.90;;;;;;;;;;5061159;28;20045;-80
2021/03/10 03:29:24;;;;;;;1999.90;999.90;;;;;;;;;;5067524;28;20460;-79
2021/03/10 03:31:50;;;;;;;1999.90;999.90;;;;;;;;;;5061618;28;20559;-79
2021/03/10 03:34:15;;;;;;;1999.90;999.90;;;;;;;;;;5066898;28;20053;-79
2021/03/10 03:36:41;;;;;;;1999.90;999.90;;;;;;;;;;5062081;28;20070;-78
2021/03/10 03:39:07;;;;;;;1999.90;999.90;;;;;;;;;;5062908;28;20021;-77
2021/03/10 03:41:33;;;;;;;1999.90;999.90;;;;;;;;;;5063474;28;20033;-79
2021/03/10 03:43:59;;;;;;;1999.90;999.90;;;;;;;;;;5059476;28;20031;-78
2021/03/10 03:46:25;;;;;;;1999.90;999.90;;;;;;;;;;5059858;28;20102;-79
2021/03/10 03:48:50;;;;;;;1999.90;999.90;;;;;;;;;;5065652;28;20472;-79
2021/03/10 03:51:28;;;;;;;1999.90;999.90;;;;;;;;;;5063602;28;20037;-79
2021/03/10 03:53:58;;;;;;;1999.90;999.90;;;;;;;;;;5064106;28;20032;-78
2021/03/10 03:56:23;;;;;;;1999.90;999.90;;;;;;;;;;5061683;28;20050;-80
2021/03/10 03:58:49;;;;;;;1999.90;999.90;;;;;;;;;;5060438;28;20470;-79
2021/03/10 04:01:15;;;;;;;1999.90;999.90;;;;;;;;;;5060791;28;20048;-80
2021/03/10 04:03:40;;;;;;;1999.90;999.90;;;;;;;;;;5066622;28;20076;-79
2021/03/10 04:06:06;;;;;;;1999.90;999.90;;;;;;;;;;5059110;28;20111;-79
2021/03/10 04:08:32;;;;;;;1999.90;999.90;;;;;;;;;;5058793;28;20038;-79
2021/03/10 04:10:57;;;;;;;1999.90;999.90;;;;;;;;;;5066615;28;20480;-79
2021/03/10 04:13:22;;;;;;;1999.90;999.90;;;;;;;;;;5053033;28;20025;-80
2021/03/10 04:15:48;;;;;;;1999.90;999.90;;;;;;;;;;5052559;28;20451;-79
2021/03/10 04:18:13;;;;;;;1999.90;999.90;;;;;;;;;;5066085;28;20024;-80
2021/03/10 04:20:39;;;;;;;1999.90;999.90;;;;;;;;;;5061877;28;20025;-80
2021/03/10 04:23:04;;;;;;;1999.90;999.90;;;;;;;;;;5065528;28;20062;-80
2021/03/10 04:25:30;;;;;;;1999.90;999.90;;;;;;;;;;5066912;28;20036;-79
2021/03/10 04:27:55;;;;;;;1999.90;999.90;;;;;;;;;;5059773;28;20045;-79
2021/03/10 04:30:21;;;;;;;1999.90;999.90;;;;;;;;;;5066192;28;20036;-79
2021/03/10 04:32:46;;;;;;;1999.90;999.90;;;;;;;;;;5059463;28;20103;-79
2021/03/10 04:35:12;;;;;;;1999.90;999.90;;;;;;;;;;5064336;28;20028;-79
2021/03/10 04:37:40;;;;;;;1999.90;999.90;;;;;;;;;;5061574;28;20031;-79
2021/03/10 04:40:05;;;;;;;1999.90;999.90;;;;;;;;;;5059477;28;20040;-79
2021/03/10 04:42:31;;;;;;;1999.90;999.90;;;;;;;;;;5066491;28;20024;-79
2021/03/10 04:44:56;;;;;;;1999.90;999.90;;;;;;;;;;5065322;28;20032;-79
2021/03/10 04:47:22;;;;;;;1999.90;999.90;;;;;;;;;;5065358;28;20037;-79
2021/03/10 04:49:47;;;;;;;1999.90;999.90;;;;;;;;;;5066162;28;20025;-79
2021/03/10 04:52:12;;;;;;;1999.90;999.90;;;;;;;;;;5063979;28;20028;-79
2021/03/10 04:54:38;;;;;;;1999.90;999.90;;;;;;;;;;5063176;28;20358;-80
2021/03/10 04:57:04;;;;;;;1999.90;999.90;;;;;;;;;;5064976;28;20494;-79
2021/03/10 04:59:29;;;;;;;1999.90;999.90;;;;;;;;;;5060910;28;20040;-80
2021/03/10 05:01:55;;;;;;;1999.90;999.90;;;;;;;;;;5065381;28;20016;-80
2021/03/10 05:04:20;;;;;;;1999.90;999.90;;;;;;;;;;5065215;28;20052;-80
2021/03/10 05:06:45;;;;;;;1999.90;999.90;;;;;;;;;;5060654;28;20102;-79
2021/03/10 05:09:11;;;;;;;1999.90;999.90;;;;;;;;;;5063124;28;20029;-79
2021/03/10 05:11:36;;;;;;;1999.90;999.90;;;;;;;;;;5057144;28;20024;-79
2021/03/10 05:14:02;;;;;;;1999.90;999.90;;;;;;;;;;5058795;28;20052;-78
2021/03/10 05:16:27;;;;;;;1999.90;999.90;;;;;;;;;;5057271;28;20028;-79
2021/03/10 05:18:53;;;;;;;1999.90;999.90;;;;;;;;;;5062423;28;20488;-79
2021/03/10 05:21:18;;;;;;;1999.90;999.90;;;;;;;;;;5067071;28;20302;-80
2021/03/10 05:23:44;;;;;;;1999.90;999.90;;;;;;;;;;5063255;28;20483;-79
2021/03/10 05:26:10;;;;;;;1999.90;999.90;;;;;;;;;;5054522;28;20384;-79
2021/03/10 05:28:35;;;;;;;1999.90;999.90;;;;;;;;;;5065720;28;20056;-80
2021/03/10 05:31:01;;;;;;;1999.90;999.90;;;;;;;;;;5063707;28;20067;-79
2021/03/10 05:33:26;;;;;;;1999.90;999.90;;;;;;;;;;5058997;28;20184;-80
2021/03/10 05:35:51;;;;;;;1999.90;999.90;;;;;;;;;;5057704;28;20457;-79
2021/03/10 05:38:17;;;;;;;1999.90;999.90;;;;;;;;;;5064463;28;20051;-78
2021/03/10 05:40:42;;;;;;;1999.90;999.90;;;;;;;;;;5065875;28;20028;-78
2021/03/10 05:43:08;;;;;;;1999.90;999.90;;;;;;;;;;5063245;28;20487;-79
2021/03/10 05:45:34;;;;;;;1999.90;999.90;;;;;;;;;;5066175;28;20078;-79
2021/03/10 05:47:59;;;;;;;1999.90;999.90;;;;;;;;;;5058012;28;20040;-78
2021/03/10 05:50:24;;;;;;;1999.90;999.90;;;;;;;;;;5060139;28;20404;-79
2021/03/10 05:52:51;;;;;;;1999.90;999.90;;;;;;;;;;5060260;28;20037;-78
2021/03/10 05:55:17;;;;;;;1999.90;999.90;;;;;;;;;;5055185;28;20143;-79
2021/03/10 05:57:43;;;;;;;1999.90;999.90;;;;;;;;;;5055390;28;20025;-78
2021/03/10 06:00:10;;;;;;;1999.90;999.90;;;;;;;;;;5058929;28;20017;-77
2021/03/10 06:02:36;;;;;;;1999.90;999.90;;;;;;;;;;5059639;28;20064;-77
2021/03/10 06:05:01;;;;;;;1999.90;999.90;;;;;;;;;;5058132;28;20153;-77
2021/03/10 06:07:26;;;;;;;1999.90;999.90;;;;;;;;;;5060737;28;20048;-78
2021/03/10 06:09:59;;;;;;;1999.90;999.90;;;;;;;;;;5068966;28;20016;-79
2021/03/10 06:12:25;;;;;;;1999.90;999.90;;;;;;;;;;5064497;28;20127;-78
2021/03/10 06:15:00;;;;;;;1999.90;999.90;;;;;;;;;;5067274;28;20588;-78
2021/03/10 06:17:26;;;;;;;1999.90;999.90;;;;;;;;;;5063383;28;20104;-78
2021/03/10 06:19:52;;;;;;;1999.90;999.90;;;;;;;;;;5070793;28;20566;-78
2021/03/10 06:22:18;;;;;;;1999.90;999.90;;;;;;;;;;5069258;28;20037;-78
2021/03/10 06:24:44;;;;;;;1999.90;999.90;;;;;;;;;;5067044;28;20549;-78
2021/03/10 06:27:10;;;;;;;1999.90;999.90;;;;;;;;;;5064659;28;20047;-77
2021/03/10 06:29:35;;;;;;;1999.90;999.90;;;;;;;;;;5068324;28;20122;-78
2021/03/10 06:32:05;;;;;;;169.65;155.55;;;;;;;;;;5065016;28;20155;-75
2021/03/10 06:34:41;;;;;;;1999.90;999.90;;;;;;;;;;5065546;28;20021;-74
2021/03/10 06:37:06;;;;;;;1999.90;999.90;;;;;;;;;;5065597;28;20036;-74
2021/03/10 06:39:31;;;;;;;178.50;162.73;;;;;;;;;;5066084;28;20017;-78
2021/03/10 06:41:57;;;;;;;170.15;155.50;;;;;;;;;;5068187;28;20481;-74
2021/03/10 06:44:23;;;;;;;169.45;154.32;;;;;;;;;;5058246;28;20024;-74
2021/03/10 06:46:53;;;;;;;1999.90;999.90;;;;;;;;;;5064842;28;20055;-77
2021/03/10 06:49:20;;;;;;;1999.90;999.90;;;;;;;;;;5066323;28;20021;-78
2021/03/10 06:51:55;;;;;;;176.68;161.20;;;;;;;;;;5070438;28;20111;-77
2021/03/10 06:54:21;;;;;;;158.18;144.32;;;;;;;;;;5061343;28;20400;-79
2021/03/10 06:56:57;;;;;;;143.77;131.73;;;;;;;;;;5064966;28;20486;-79
2021/03/10 06:59:22;;;;;;;150.55;136.57;;;;;;;;;;5066232;28;20110;-79
2021/03/10 07:01:48;;;;;;;160.43;146.27;;;;;;;;;;5067805;28;20063;-78
2021/03/10 07:04:13;;;;;;;161.38;146.68;;;;;;;;;;5065598;28;20040;-78
2021/03/10 07:06:39;;;;;;;155.32;141.23;;;;;;;;;;5068655;28;20471;-78
2021/03/10 07:09:07;;;;;;;180.85;142.40;;;;;;;;;;5049730;28;20107;-75
2021/03/10 07:11:32;;;;;;;166.23;150.73;;;;;;;;;;5069862;28;20013;-73
2021/03/10 07:13:59;;;;;;;158.35;144.70;;;;;;;;;;5061774;28;20079;-76
2021/03/10 07:16:26;;;;;;;154.45;140.68;;;;;;;;;;5061523;28;20016;-77
2021/03/10 07:18:51;;;;;;;142.23;130.30;;;;;;;;;;5071385;28;20043;-78
2021/03/10 07:21:23;;;;;;;146.32;134.38;;;;;;;;;;5066574;28;20020;-77
2021/03/10 07:23:51;;;;;;;153.63;140.43;;;;;;;;;;5058050;28;20110;-76
2021/03/10 07:26:17;;;;;;;150.95;138.25;;;;;;;;;;5059962;28;20029;-78
2021/03/10 07:28:47;;;;;;;151.95;138.65;;;;;;;;;;5065957;28;20057;-77
2021/03/10 07:31:23;;;;;;;149.38;136.90;;;;;;;;;;5062690;28;20074;-77
2021/03/10 07:33:49;;;;;;;154.65;141.10;;;;;;;;;;5061374;28;20117;-78
2021/03/10 07:36:15;;;;;;;144.52;132.57;;;;;;;;;;5052307;28;20012;-77
2021/03/10 07:38:41;;;;;;;157.77;144.40;;;;;;;;;;5065378;28;20109;-77
2021/03/10 07:41:13;;;;;;;180.15;163.68;;;;;;;;;;5069710;28;20485;-76
2021/03/10 07:43:42;;;;;;;173.32;158.30;;;;;;;;;;5059420;28;20041;-77
2021/03/10 07:46:40;;;;;;;175.43;159.13;;;;;;;;;;5068173;28;20484;-77
2021/03/10 07:49:16;;;;;;;160.27;146.85;;;;;;;;;;5048473;28;20053;-76
2021/03/10 07:51:41;;;;;;;162.48;148.20;;;;;;;;;;5062257;28;20040;-77
2021/03/10 07:54:17;;;;;;;160.50;146.50;;;;;;;;;;5064914;28;20013;-77
2021/03/10 07:56:42;;;;;;;162.95;148.85;;;;;;;;;;5067791;28;20469;-78
2021/03/10 07:59:09;;;;;;;160.35;146.75;;;;;;;;;;5061455;28;20040;-77
2021/03/10 08:01:34;;;;;;;164.57;149.80;;;;;;;;;;5064637;28;20427;-78
2021/03/10 08:04:09;;;;;;;174.60;157.82;;;;;;;;;;5063686;28;20045;-78
2021/03/10 08:06:45;;;;;;;172.85;157.68;;;;;;;;;;5062733;28;20131;-78
2021/03/10 08:09:11;;;;;;;183.55;167.07;;;;;;;;;;5066944;28;20075;-78
2021/03/10 08:11:38;;;;;;;185.13;168.48;;;;;;;;;;5065082;28;20184;-77
2021/03/10 08:14:04;;;;;;;198.32;180.35;;;;;;;;;;5066403;28;20412;-77
2021/03/10 08:16:39;;;;;;;189.75;172.05;;;;;;;;;;5061790;28;20033;-78
2021/03/10 08:19:05;;;;;;;188.77;170.57;;;;;;;;;;5057272;28;20028;-78
2021/03/10 08:21:30;;;;;;;189.27;171.05;;;;;;;;;;5060313;28;20024;-76
2021/03/10 08:23:59;;;;;;;197.52;179.35;;;;;;;;;;5058941;28;20384;-78
2021/03/10 08:26:24;;;;;;;204.10;184.50;;;;;;;;;;5062306;28;20025;-78
2021/03/10 08:28:49;;;;;;;204.88;185.20;;;;;;;;;;5056791;28;20240;-77
2021/03/10 08:31:15;;;;;;;211.07;190.93;;;;;;;;;;5063277;28;20135;-77
2021/03/10 08:33:44;;;;;;;206.90;187.05;;;;;;;;;;5061593;28;20028;-77
2021/03/10 08:36:09;;;;;;;202.95;183.30;;;;;;;;;;5063485;28;20581;-77
2021/03/10 08:38:35;;;;;;;184.20;167.35;;;;;;;;;;5063127;28;20051;-78
2021/03/10 08:41:07;;;;;;;181.45;164.43;;;;;;;;;;5056485;28;20028;-77
2021/03/10 08:43:33;;;;;;;185.25;167.27;;;;;;;;;;5064597;28;20504;-78
2021/03/10 08:45:58;;;;;;;184.27;167.10;;;;;;;;;;5057242;28;20021;-78
2021/03/10 08:48:25;;;;;;;169.52;154.05;;;;;;;;;;5059145;28;20036;-78
2021/03/10 08:50:51;;;;;;;166.75;151.63;;;;;;;;;;5066953;28;20016;-79
2021/03/10 08:53:16;;;;;;;166.50;151.85;;;;;;;;;;5065869;28;20040;-78
2021/03/10 08:55:49;;;;;;;171.52;155.70;;;;;;;;;;5069183;28;20020;-78
2021/03/10 08:58:17;;;;;;;169.23;153.40;;;;;;;;;;5058559;28;20621;-79
2021/03/10 09:00:44;;;;;;;163.77;148.55;;;;;;;;;;5064124;28;20017;-78
2021/03/10 09:03:15;;;;;;;163.88;148.75;;;;;;;;;;5055253;28;20033;-79
2021/03/10 09:05:42;;;;;;;166.70;151.40;;;;;;;;;;5062668;28;20116;-78
2021/03/10 09:08:12;;;;;;;157.25;143.27;;;;;;;;;;5061341;28;20185;-79
2021/03/10 09:10:44;;;;;;;152.32;138.48;;;;;;;;;;5063519;28;20040;-79
2021/03/10 09:13:23;;;;;;;142.73;130.32;;;;;;;;;;5065842;28;20640;-78
2021/03/10 09:15:50;;;;;;;145.75;132.98;;;;;;;;;;5061054;28;20408;-79
2021/03/10 09:18:32;;;;;;;135.32;122.68;;;;;;;;;;5069909;28;20032;-79
2021/03/10 09:20:57;;;;;;;133.18;121.68;;;;;;;;;;5066599;28;20021;-78
2021/03/10 09:23:25;;;;;;;132.27;120.30;;;;;;;;;;5067264;28;20078;-78
2021/03/10 09:25:53;;;;;;;129.93;119.38;;;;;;;;;;5062879;28;20039;-78
2021/03/10 09:28:32;;;;;;;127.85;117.80;;;;;;;;;;5065578;28;20032;-78
2021/03/10 09:31:24;;;;;;;119.28;109.25;;;;;;;;;;5056782;28;20496;-78
2021/03/10 09:34:05;;;;;;;126.05;115.85;;;;;;;;;;5067471;28;20061;-78
2021/03/10 09:36:38;;;;;;;116.55;106.90;;;;;;;;;;5076116;28;20400;-78
2021/03/10 09:39:05;;;;;;;105.50;97.53;;;;;;;;;;5064423;28;20040;-79
2021/03/10 09:41:47;;;;;;;113.30;104.57;;;;;;;;;;5068352;28;20119;-76
2021/03/10 09:44:15;;;;;;;118.00;108.10;;;;;;;;;;5060260;28;20032;-79
2021/03/10 09:46:43;;;;;;;75.15;69.05;;;;;;;;;;5042756;28;20025;-76
2021/03/10 09:49:11;;;;;;;69.10;63.20;;;;;;;;;;5056105;28;20028;-74
2021/03/10 09:51:47;;;;;;;74.05;67.75;;;;;;;;;;5059401;28;20017;-75
2021/03/10 09:54:15;;;;;;;70.63;64.32;;;;;;;;;;5067082;28;20040;-76
2021/03/10 09:56:52;;;;;;;76.90;70.57;;;;;;;;;;5062043;28;20017;-77
2021/03/10 09:59:32;;;;;;;83.18;76.53;;;;;;;;;;5064897;28;20037;-76
2021/03/10 10:02:00;;;;;;;75.68;69.53;;;;;;;;;;5065341;28;20170;-77
2021/03/10 10:04:30;;;;;;;78.85;72.18;;;;;;;;;;5056567;28;20049;-78
2021/03/10 10:06:59;;;;;;;80.30;73.85;;;;;;;;;;5066748;28;20104;-77
2021/03/10 10:09:32;;;;;;;78.55;71.63;;;;;;;;;;5061210;28;20044;-76
2021/03/10 10:12:03;;;;;;;81.70;74.43;;;;;;;;;;5064812;28;20388;-76
2021/03/10 10:14:43;;;;;;;85.32;78.20;;;;;;;;;;5060650;28;20093;-77
2021/03/10 10:17:09;;;;;;;85.03;78.28;;;;;;;;;;5055170;28;20600;-75
2021/03/10 10:19:35;;;;;;;76.20;69.30;;;;;;;;;;5066878;28;20017;-76
2021/03/10 10:22:01;;;;;;;76.50;70.20;;;;;;;;;;5061447;28;20025;-77
2021/03/10 10:24:27;;;;;;;65.82;60.60;;;;;;;;;;5057806;28;20412;-77
2021/03/10 10:26:52;;;;;;;63.53;58.00;;;;;;;;;;5057042;28;20041;-77
2021/03/10 10:29:23;;;;;;;71.68;64.95;;;;;;;;;;5052466;28;20016;-76
2021/03/10 10:31:50;;;;;;;66.47;61.17;;;;;;;;;;5062116;28;20039;-76
2021/03/10 10:34:18;;;;;;;67.05;61.70;;;;;;;;;;5063844;28;20024;-77
2021/03/10 10:36:45;;;;;;;66.03;60.47;;;;;;;;;;5061907;28;20024;-76
2021/03/10 10:39:10;;;;;;;64.47;58.53;;;;;;;;;;5057863;28;20028;-77
2021/03/10 10:41:36;;;;;;;62.42;57.50;;;;;;;;;;5063143;28;20025;-76
2021/03/10 10:44:01;;;;;;;71.32;64.93;;;;;;;;;;5058004;28;20033;-76
2021/03/10 10:46:28;;;;;;;73.40;66.80;;;;;;;;;;5063380;28;20028;-75
2021/03/10 10:48:54;;;;;;;63.65;57.97;;;;;;;;;;5056011;28;20108;-76
2021/03/10 10:51:28;;;;;;;66.40;60.45;;;;;;;;;;5046781;28;20028;-79
2021/03/10 10:54:01;;;;;;;59.00;54.33;;;;;;;;;;5064096;28;20037;-79
2021/03/10 10:56:27;;;;;;;81.75;74.78;;;;;;;;;;5057512;28;20419;-79
2021/03/10 10:58:54;;;;;;;62.33;57.55;;;;;;;;;;5060033;28;20116;-79
2021/03/10 11:01:21;;;;;;;60.63;55.50;;;;;;;;;;5067294;28;20040;-79
2021/03/10 11:03:47;;;;;;;58.63;53.63;;;;;;;;;;5059604;28;20045;-77
2021/03/10 11:06:12;;;;;;;82.53;76.13;;;;;;;;;;5062578;28;20036;-78
2021/03/10 11:08:43;;;;;;;62.55;57.55;;;;;;;;;;5069562;28;20028;-79
2021/03/10 11:11:09;;;;;;;63.53;58.67;;;;;;;;;;5067872;28;20021;-76
2021/03/10 11:13:36;;;;;;;61.85;56.50;;;;;;;;;;5064723;28;20429;-80
2021/03/10 11:16:09;;;;;;;72.10;66.47;;;;;;;;;;5067801;28;20040;-69
2021/03/10 11:18:55;;;;;;;62.40;57.58;;;;;;;;;;5061077;28;20044;-79
2021/03/10 11:21:21;;;;;;;66.22;60.22;;;;;;;;;;5059441;28;20083;-80
2021/03/10 11:23:47;;;;;;;73.13;67.53;;;;;;;;;;5061113;28;20071;-79
2021/03/10 11:26:12;;;;;;;61.95;56.95;;;;;;;;;;5058968;28;20036;-79
2021/03/10 11:28:38;;;;;;;56.28;51.97;;;;;;;;;;5062467;28;20099;-79
2021/03/10 11:31:06;;;;;;;72.88;66.97;;;;;;;;;;5052787;28;20033;-79
2021/03/10 11:33:34;;;;;;;92.40;85.60;;;;;;;;;;5056910;28;20029;-79
2021/03/10 11:36:04;;;;;;;63.53;58.50;;;;;;;;;;5063471;28;20397;-80
2021/03/10 11:38:33;;;;;;;59.03;53.75;;;;;;;;;;5057399;28;20532;-74
2021/03/10 11:40:58;;;;;;;63.05;57.83;;;;;;;;;;5062041;28;20031;-75
2021/03/10 11:43:23;;;;;;;64.28;59.05;;;;;;;;;;5065344;28;20034;-76
2021/03/10 11:45:49;;;;;;;59.85;55.28;;;;;;;;;;5063436;28;20009;-76
2021/03/10 11:48:15;;;;;;;60.50;55.97;;;;;;;;;;5064105;28;20017;-77
2021/03/10 11:50:40;;;;;;;60.42;54.90;;;;;;;;;;5061296;28;20021;-77
2021/03/10 11:53:06;;;;;;;53.45;49.47;;;;;;;;;;5064453;28;20541;-77
2021/03/10 11:55:32;;;;;;;59.70;54.78;;;;;;;;;;5062891;28;20028;-77
2021/03/10 11:57:57;;;;;;;545.00;291.63;;;;;;;;;;5063021;28;20040;-76
2021/03/10 12:00:23;;;;;;;1999.90;999.90;;;;;;;;;;5065475;28;20020;-76
2021/03/10 12:02:56;;;;;;;61.47;56.13;;;;;;;;;;5060442;28;20111;-76
2021/03/10 12:05:36;;;;;;;1999.90;999.90;;;;;;;;;;5066376;28;20094;-76
2021/03/10 12:08:02;;;;;;;1999.90;999.90;;;;;;;;;;5064825;28;20535;-76
2021/03/10 12:10:28;;;;;;;1999.90;999.90;;;;;;;;;;5070839;28;20020;-76
2021/03/10 12:12:53;;;;;;;1999.90;999.90;;;;;;;;;;5063112;28;20024;-76
2021/03/10 12:15:19;;;;;;;1999.90;999.90;;;;;;;;;;5060208;28;20056;-77
2021/03/10 12:17:45;;;;;;;1999.90;999.90;;;;;;;;;;5060838;28;20032;-76
2021/03/10 12:20:10;;;;;;;1999.90;999.90;;;;;;;;;;5065257;28;20072;-76
2021/03/10 12:22:37;;;;;;;1999.90;999.90;;;;;;;;;;5065562;28;20029;-77
2021/03/10 12:25:03;;;;;;;1999.90;999.90;;;;;;;;;;5061439;28;20032;-76
2021/03/10 12:27:29;;;;;;;1999.90;999.90;;;;;;;;;;5064606;28;20555;-78
2021/03/10 12:29:57;;;;;;;1999.90;999.90;;;;;;;;;;5063131;28;20020;-77
2021/03/10 12:32:22;;;;;;;1999.90;999.90;;;;;;;;;;5064317;28;20033;-77
2021/03/10 12:34:51;;;;;;;1999.90;999.90;;;;;;;;;;5064419;28;20038;-77
2021/03/10 12:37:16;;;;;;;1999.90;999.90;;;;;;;;;;5067732;28;20507;-76
2021/03/10 12:39:42;;;;;;;1999.90;999.90;;;;;;;;;;5060993;28;20020;-75
2021/03/10 12:42:09;;;;;;;1999.90;999.90;;;;;;;;;;5063585;28;20029;-76
2021/03/10 12:44:34;;;;;;;1999.90;999.90;;;;;;;;;;5062083;28;20009;-77
2021/03/10 12:47:00;;;;;;;1999.90;999.90;;;;;;;;;;5053234;28;20040;-78
2021/03/10 12:49:25;;;;;;;1999.90;999.90;;;;;;;;;;5056039;28;20481;-77
2021/03/10 12:51:51;;;;;;;1999.90;999.90;;;;;;;;;;5068719;28;20453;-77
2021/03/10 12:54:16;;;;;;;1999.90;999.90;;;;;;;;;;5064455;28;20035;-77
2021/03/10 12:56:41;;;;;;;1999.90;999.90;;;;;;;;;;5064557;28;20036;-77
2021/03/10 12:59:07;;;;;;;1999.90;999.90;;;;;;;;;;5060292;28;20116;-77
2021/03/10 13:01:32;;;;;;;1999.90;999.90;;;;;;;;;;5064489;28;20067;-77
2021/03/10 13:03:58;;;;;;;1999.90;999.90;;;;;;;;;;5057400;28;20052;-77
2021/03/10 13:06:23;;;;;;;1999.90;999.90;;;;;;;;;;5058876;28;20028;-77
2021/03/10 13:08:48;;;;;;;1999.90;999.90;;;;;;;;;;5060824;28;20026;-78
2021/03/10 13:11:14;;;;;;;1999.90;999.90;;;;;;;;;;5063614;28;20115;-78
2021/03/10 13:13:39;;;;;;;1999.90;999.90;;;;;;;;;;5061813;28;20021;-78
2021/03/10 13:16:05;;;;;;;1999.90;999.90;;;;;;;;;;5065070;28;20037;-79
2021/03/10 13:18:31;;;;;;;1999.90;999.90;;;;;;;;;;5063894;28;20587;-78
2021/03/10 13:20:56;;;;;;;1999.90;999.90;;;;;;;;;;5064256;28;20686;-76
2021/03/10 13:23:26;;;;;;;1999.90;999.90;;;;;;;;;;5058832;28;20028;-78
2021/03/10 13:25:53;;;;;;;1999.90;999.90;;;;;;;;;;5063407;28;20020;-78
2021/03/10 13:28:18;;;;;;;1999.90;999.90;;;;;;;;;;5067712;28;20016;-78
2021/03/10 13:30:44;;;;;;;1999.90;999.90;;;;;;;;;;5071971;28;20074;-77
2021/03/10 13:33:09;;;;;;;1999.90;999.90;;;;;;;;;;5062472;28;20490;-79
2021/03/10 13:35:39;;;;;;;1999.90;999.90;;;;;;;;;;5060746;28;20028;-78
2021/03/10 13:38:04;;;;;;;1999.90;999.90;;;;;;;;;;5058710;28;20063;-77
2021/03/10 13:40:30;;;;;;;1999.90;999.90;;;;;;;;;;5059656;28;20051;-77
2021/03/10 13:42:55;;;;;;;1999.90;999.90;;;;;;;;;;5058681;28;20077;-77
2021/03/10 13:45:20;;;;;;;1999.90;999.90;;;;;;;;;;5064310;28;20054;-77
2021/03/10 13:47:46;;;;;;;1999.90;999.90;;;;;;;;;;5065510;28;20380;-78
2021/03/10 13:50:11;;;;;;;1999.90;999.90;;;;;;;;;;5064907;28;20044;-77